Gobernador Crespo, Argentina
Current Conditions -  °F | °C
As of 9:00 PM on Monday 20 Oct 2014 (Local Time) from SUSO Reporting Station
Clear Clear  
Wind Chill: 64°   Ceiling: Unl
Heat Index: 64°   Visibility: 6mi
Dew Point: 54°   Wind: 5mph
Humidity: 68%   Direction: 120°ESE
Pressure: 30.09"   Gusts: NA
Location:  30.38°S, 60.42°W
Report Text: SUSO 210000Z 12004KT CAVOK 18/12 Q1019
Loading
Personal Weather Stations






























Interactive Weather Map New forecast layout! Learn more

10-Day Weather Forecast

Advertisements
Track Severe Weather on mobile